createdAt,value
2023-03-06T00:03:57.784Z,62.38
2023-03-06T00:09:18.508Z,62.92
2023-03-06T00:14:39.254Z,63.14
2023-03-06T00:19:59.974Z,62.50
2023-03-06T00:25:21.959Z,63.00
2023-03-06T00:30:43.549Z,62.80
2023-03-06T00:36:05.991Z,62.60
2023-03-06T00:41:27.315Z,62.68
2023-03-06T00:46:48.125Z,62.66
2023-03-06T00:52:08.959Z,62.45
2023-03-06T00:57:29.857Z,62.97
2023-03-06T01:02:53.654Z,63.01
2023-03-06T01:08:16.158Z,63.03
2023-03-06T01:13:36.783Z,62.50
2023-03-06T01:18:57.555Z,62.10
2023-03-06T01:24:18.265Z,62.46
2023-03-06T01:29:39.106Z,62.73
2023-03-06T01:34:59.701Z,62.61
2023-03-06T01:40:20.779Z,62.44
2023-03-06T01:45:41.688Z,62.39
2023-03-06T01:51:02.460Z,62.80
2023-03-06T01:56:24.033Z,62.47
2023-03-06T02:01:46.758Z,62.70
2023-03-06T02:07:09.297Z,62.38
2023-03-06T02:12:30.407Z,62.15
2023-03-06T02:17:52.461Z,62.58
2023-03-06T02:23:21.375Z,62.89
2023-03-06T02:28:42.102Z,62.66
2023-03-06T02:34:07.599Z,62.40
2023-03-06T02:39:31.270Z,62.28
2023-03-06T02:44:54.285Z,62.60
2023-03-06T02:50:14.957Z,62.64
2023-03-06T02:55:36.378Z,63.06
2023-03-06T03:00:57.543Z,63.02
2023-03-06T03:06:18.867Z,62.83
2023-03-06T03:11:40.679Z,62.37
2023-03-06T03:17:01.597Z,63.04
2023-03-06T03:22:22.744Z,62.96
2023-03-06T03:27:44.613Z,62.96
2023-03-06T03:33:06.364Z,63.00
2023-03-06T03:38:27.871Z,62.76
2023-03-06T03:43:49.440Z,63.26
2023-03-06T03:49:10.153Z,62.62
2023-03-06T03:54:31.863Z,62.91
2023-03-06T03:59:53.210Z,63.41
2023-03-06T04:05:19.278Z,63.00
2023-03-06T04:10:42.115Z,63.36
2023-03-06T04:16:04.654Z,63.13
2023-03-06T04:21:27.862Z,63.16
2023-03-06T04:26:49.266Z,63.28
2023-03-06T04:32:10.217Z,63.10
2023-03-06T04:37:31.489Z,63.18
2023-03-06T04:42:54.558Z,62.93
2023-03-06T04:48:17.975Z,63.36
2023-03-06T04:53:38.671Z,63.50
2023-03-06T04:58:59.491Z,63.55
2023-03-06T05:04:20.164Z,63.16
2023-03-06T05:09:40.848Z,63.18
2023-03-06T05:15:01.311Z,63.22
2023-03-06T05:20:22.390Z,62.95
2023-03-06T05:25:43.351Z,63.35
2023-03-06T05:31:05.271Z,63.63
2023-03-06T05:36:25.979Z,63.42
2023-03-06T05:41:46.547Z,63.44
2023-03-06T05:47:08.404Z,63.47
2023-03-06T05:52:29.497Z,62.90
2023-03-06T05:57:51.682Z,63.34
2023-03-06T06:03:12.303Z,63.47
2023-03-06T06:08:32.979Z,62.76
2023-03-06T06:13:53.739Z,63.32
2023-03-06T06:19:18.766Z,63.23
2023-03-06T06:24:39.793Z,63.10
2023-03-06T06:30:00.423Z,63.48
2023-03-06T06:35:21.252Z,63.57
2023-03-06T06:40:42.550Z,63.87
2023-03-06T06:46:31.443Z,63.60
2023-03-06T06:51:45.096Z,63.79
2023-03-06T06:57:05.853Z,64.05
2023-03-06T07:02:26.742Z,64.07
2023-03-06T07:07:47.463Z,64.39
2023-03-06T07:13:08.096Z,63.87
2023-03-06T07:18:29.117Z,63.75
2023-03-06T07:23:50.412Z,64.08
2023-03-06T07:29:11.153Z,63.84
2023-03-06T07:34:31.926Z,64.03
2023-03-06T07:39:52.647Z,64.13
2023-03-06T07:45:13.795Z,64.42
2023-03-06T07:50:35.125Z,64.63
2023-03-06T07:55:56.533Z,64.35
2023-03-06T08:01:20.041Z,64.74
2023-03-06T08:06:40.927Z,65.11
2023-03-06T08:12:02.288Z,64.59
2023-03-06T08:17:22.924Z,64.84
2023-03-06T08:22:43.575Z,64.71
2023-03-06T08:28:04.358Z,64.69
2023-03-06T08:33:25.547Z,65.03
2023-03-06T08:38:46.470Z,64.54
2023-03-06T08:44:07.191Z,64.63
2023-03-06T08:49:27.910Z,64.69
2023-03-06T08:54:48.625Z,64.66
2023-03-06T09:00:10.941Z,65.15
2023-03-06T09:05:32.341Z,65.38
2023-03-06T09:10:53.212Z,64.97
2023-03-06T09:16:13.956Z,64.63
2023-03-06T09:21:34.775Z,64.78
2023-03-06T09:26:55.504Z,64.62
2023-03-06T09:32:16.300Z,64.39
2023-03-06T09:37:37.196Z,64.61
2023-03-06T09:42:58.081Z,65.13
2023-03-06T09:48:28.436Z,64.96
2023-03-06T09:54:13.855Z,64.58
2023-03-06T09:59:34.765Z,64.31
2023-03-06T10:05:04.097Z,64.25
2023-03-06T10:10:28.405Z,64.38
2023-03-06T10:15:50.265Z,64.33
2023-03-06T10:21:26.439Z,64.59
2023-03-06T10:26:58.319Z,64.19
2023-03-06T10:32:47.649Z,64.82
2023-03-06T10:38:32.269Z,64.23
2023-03-06T10:44:05.316Z,64.67
2023-03-06T10:49:36.812Z,64.81
2023-03-06T10:55:37.759Z,64.38
2023-03-06T11:01:03.577Z,65.08
2023-03-06T11:06:37.055Z,64.72
2023-03-06T11:12:38.098Z,64.70
2023-03-06T11:18:08.802Z,64.32
2023-03-06T11:23:46.582Z,64.05
2023-03-06T11:29:12.172Z,63.74
2023-03-06T11:35:04.460Z,64.12
2023-03-06T11:40:33.821Z,64.09
2023-03-06T11:46:12.074Z,63.62
2023-03-06T11:51:38.153Z,63.89
2023-03-06T11:57:06.940Z,63.63
2023-03-06T12:02:57.238Z,62.72
2023-03-06T12:08:36.415Z,62.78
2023-03-06T12:14:13.833Z,63.00
2023-03-06T12:19:40.518Z,62.24
2023-03-06T12:25:17.376Z,62.36
2023-03-06T12:30:49.487Z,62.01
2023-03-06T12:36:28.773Z,64.95
2023-03-06T12:42:48.644Z,61.56
2023-03-06T12:48:20.572Z,61.20
2023-03-06T12:53:42.661Z,60.61
2023-03-06T12:59:03.597Z,60.60
2023-03-06T13:04:52.500Z,60.53
2023-03-06T13:10:25.408Z,60.39
2023-03-06T13:16:09.946Z,60.44
2023-03-06T13:21:47.631Z,60.14
2023-03-06T13:27:11.683Z,59.89
2023-03-06T13:32:34.101Z,59.58
2023-03-06T13:37:54.922Z,59.76
2023-03-06T13:43:21.495Z,60.14
2023-03-06T13:48:45.796Z,60.58
2023-03-06T13:54:10.034Z,61.51
2023-03-06T14:00:03.107Z,61.85
2023-03-06T14:05:52.852Z,62.49
2023-03-06T14:11:21.201Z,62.15
2023-03-06T14:16:50.547Z,62.16
2023-03-06T14:22:23.085Z,62.11
2023-03-06T14:27:52.540Z,61.61
2023-03-06T14:33:13.245Z,60.98
2023-03-06T14:38:42.323Z,61.39
2023-03-06T14:44:21.785Z,61.50
2023-03-06T14:49:42.767Z,60.79
2023-03-06T14:55:09.675Z,61.26
2023-03-06T15:00:38.127Z,60.30
2023-03-06T15:05:59.516Z,60.99
2023-03-06T15:11:20.192Z,60.26
2023-03-06T15:16:41.025Z,60.19
2023-03-06T15:22:01.849Z,59.66
2023-03-06T15:27:30.330Z,60.67
2023-03-06T15:32:51.786Z,59.78
2023-03-06T15:38:42.218Z,59.60
2023-03-06T15:44:11.424Z,59.97
2023-03-06T15:49:32.210Z,60.01
2023-03-06T15:54:53.074Z,60.30
2023-03-06T16:00:27.299Z,60.92
2023-03-06T16:05:48.531Z,62.26
2023-03-06T16:11:32.555Z,62.57
2023-03-06T16:16:56.907Z,63.79
2023-03-06T16:22:17.880Z,63.51
2023-03-06T16:27:38.686Z,63.75
2023-03-06T16:33:00.226Z,64.57
2023-03-06T16:38:21.132Z,64.48
2023-03-06T16:43:41.871Z,64.34
2023-03-06T16:49:02.539Z,64.97
2023-03-06T16:54:26.181Z,64.99
2023-03-06T16:59:47.385Z,64.77
2023-03-06T17:05:09.843Z,66.82
2023-03-06T17:10:31.202Z,66.18
2023-03-06T17:15:59.506Z,64.73
2023-03-06T17:21:20.569Z,65.21
2023-03-06T17:26:41.405Z,65.49
2023-03-06T17:32:02.372Z,64.84
2023-03-06T17:37:23.337Z,66.02
2023-03-06T17:42:43.976Z,65.61
2023-03-06T17:48:04.889Z,65.25
2023-03-06T17:53:26.731Z,65.73
2023-03-06T17:58:47.743Z,65.93
2023-03-06T18:04:08.582Z,66.60
2023-03-06T18:09:29.469Z,66.42
2023-03-06T18:14:50.832Z,66.34
2023-03-06T18:20:12.258Z,66.06
2023-03-06T18:25:33.713Z,66.08
2023-03-06T18:30:54.789Z,66.19
2023-03-06T18:36:16.091Z,65.85
2023-03-06T18:41:37.667Z,66.23
2023-03-06T18:46:58.620Z,66.06
2023-03-06T18:52:19.593Z,66.17
2023-03-06T18:57:40.929Z,66.35
2023-03-06T19:03:01.775Z,66.25
2023-03-06T19:08:22.443Z,66.16
2023-03-06T19:13:43.440Z,66.46
2023-03-06T19:19:04.558Z,65.79
2023-03-06T19:24:25.299Z,65.82
2023-03-06T19:29:46.018Z,66.17
2023-03-06T19:35:07.013Z,66.24
2023-03-06T19:40:28.213Z,65.84
2023-03-06T19:45:49.030Z,65.73
2023-03-06T19:51:10.631Z,66.28
2023-03-06T19:56:33.816Z,65.40
2023-03-06T20:01:54.989Z,66.29
2023-03-06T20:07:15.799Z,66.11
2023-03-06T20:12:36.659Z,65.69
2023-03-06T20:17:57.424Z,65.96
2023-03-06T20:23:19.129Z,66.12
2023-03-06T20:28:42.165Z,65.73
2023-03-06T20:34:05.415Z,65.92
2023-03-06T20:39:26.108Z,67.08
2023-03-06T20:44:47.242Z,66.09
2023-03-06T20:50:08.539Z,66.01
2023-03-06T20:55:29.342Z,66.43
2023-03-06T21:00:50.066Z,65.77
2023-03-06T21:06:10.693Z,66.60
2023-03-06T21:11:31.475Z,66.16
2023-03-06T21:16:52.162Z,66.32
2023-03-06T21:22:13.791Z,65.68
2023-03-06T21:27:34.564Z,66.37
2023-03-06T21:32:55.718Z,65.76
2023-03-06T21:38:17.029Z,66.20
2023-03-06T21:43:38.927Z,66.17
2023-03-06T21:49:01.602Z,66.69
2023-03-06T21:54:22.947Z,66.34
2023-03-06T21:59:43.596Z,66.61
2023-03-06T22:05:04.807Z,66.30
2023-03-06T22:10:25.699Z,66.33
2023-03-06T22:15:50.800Z,66.40
2023-03-06T22:21:14.661Z,66.38
2023-03-06T22:26:35.519Z,65.77
2023-03-06T22:31:56.299Z,66.07
2023-03-06T22:37:17.206Z,65.95
2023-03-06T22:42:37.765Z,66.01
2023-03-06T22:48:10.144Z,66.18
2023-03-06T22:53:32.707Z,66.31
2023-03-06T22:58:53.833Z,65.94
2023-03-06T23:04:14.715Z,65.82
2023-03-06T23:09:35.325Z,65.89
2023-03-06T23:15:14.635Z,66.19
2023-03-06T23:20:54.113Z,66.26
2023-03-06T23:26:34.488Z,66.28
2023-03-06T23:31:55.457Z,66.11
2023-03-06T23:37:16.050Z,66.47
2023-03-06T23:42:37.392Z,66.31
2023-03-06T23:47:58.272Z,65.97
2023-03-06T23:53:19.700Z,66.54
2023-03-06T23:58:40.927Z,66.78
